createdAt,value
2019-05-10T00:02:25.978Z,6.47
2019-05-10T00:06:52.953Z,6.47
2019-05-10T00:11:06.377Z,7.20
2019-05-10T00:15:16.913Z,6.07
2019-05-10T00:19:25.678Z,6.20
2019-05-10T00:23:34.334Z,6.47
2019-05-10T00:27:42.953Z,6.10
2019-05-10T00:31:51.569Z,5.80
2019-05-10T00:36:00.275Z,6.03
2019-05-10T00:40:09.121Z,9.17
2019-05-10T00:44:17.744Z,6.47
2019-05-10T00:48:26.394Z,5.83
2019-05-10T00:52:34.934Z,6.53
2019-05-10T00:56:43.631Z,6.80
2019-05-10T01:00:52.374Z,6.43
2019-05-10T01:05:01.265Z,6.90
2019-05-10T01:09:11.532Z,5.73
2019-05-10T01:13:20.154Z,5.87
2019-05-10T01:17:28.780Z,5.47
2019-05-10T01:21:37.382Z,6.00
2019-05-10T01:25:45.991Z,5.57
2019-05-10T01:29:54.606Z,6.07
2019-05-10T01:34:03.300Z,6.63
2019-05-10T01:38:12.231Z,6.50
2019-05-10T01:42:20.819Z,5.87
2019-05-10T01:46:29.438Z,5.57
2019-05-10T01:50:57.380Z,5.40
2019-05-10T01:55:09.206Z,6.33
2019-05-10T01:59:17.783Z,6.90
2019-05-10T02:03:26.839Z,6.30
2019-05-10T02:07:35.413Z,5.63
2019-05-10T02:11:44.011Z,5.60
2019-05-10T02:15:52.590Z,6.23
2019-05-10T02:20:01.283Z,7.03
2019-05-10T02:24:09.850Z,6.23
2019-05-10T02:28:18.456Z,5.80
2019-05-10T02:32:27.116Z,5.33
2019-05-10T02:36:35.775Z,5.57
2019-05-10T02:40:44.618Z,6.30
2019-05-10T02:44:53.218Z,6.50
2019-05-10T02:49:02.107Z,6.97
2019-05-10T02:53:11.446Z,5.93
2019-05-10T02:57:21.964Z,6.20
2019-05-10T03:01:30.645Z,6.20
2019-05-10T03:05:47.827Z,6.50
2019-05-10T03:09:52.854Z,6.23
2019-05-10T03:14:04.538Z,6.90
2019-05-10T03:18:13.618Z,6.53
2019-05-10T03:22:23.907Z,7.03
2019-05-10T03:26:49.724Z,7.03
2019-05-10T03:30:43.524Z,7.30
2019-05-10T03:34:52.193Z,8.33
2019-05-10T03:39:00.911Z,7.97
2019-05-10T03:43:09.460Z,6.73
2019-05-10T03:47:18.090Z,8.03
2019-05-10T03:51:26.692Z,7.70
2019-05-10T03:55:35.348Z,8.87
2019-05-10T03:59:43.965Z,8.37
2019-05-10T04:03:52.594Z,9.30
2019-05-10T04:08:01.308Z,8.80
2019-05-10T04:12:09.980Z,9.13
2019-05-10T04:16:18.611Z,8.83
2019-05-10T04:20:27.249Z,10.20
2019-05-10T04:24:36.673Z,10.13
2019-05-10T04:28:45.408Z,11.23
2019-05-10T04:32:54.041Z,11.70
2019-05-10T04:37:02.694Z,12.73
2019-05-10T04:41:11.322Z,13.07
2019-05-10T04:45:20.004Z,14.33
2019-05-10T04:49:28.673Z,13.20
2019-05-10T04:53:37.292Z,14.20
2019-05-10T04:57:50.489Z,13.38
2019-05-10T05:01:56.559Z,13.13
2019-05-10T05:06:05.626Z,13.70
2019-05-10T05:10:14.341Z,13.50
2019-05-10T05:14:23.354Z,13.80
2019-05-10T05:18:31.989Z,15.30
2019-05-10T05:22:40.618Z,15.23
2019-05-10T05:26:49.531Z,15.00
2019-05-10T05:30:58.177Z,17.53
2019-05-10T05:35:07.134Z,18.40
2019-05-10T05:39:15.737Z,15.70
2019-05-10T05:43:24.389Z,18.50
2019-05-10T05:47:37.586Z,16.50
2019-05-10T05:51:43.670Z,13.97
2019-05-10T05:55:52.332Z,16.20
2019-05-10T06:00:03.968Z,15.10
2019-05-10T06:04:12.752Z,15.07
2019-05-10T06:08:23.297Z,16.40
2019-05-10T06:12:31.809Z,15.40
2019-05-10T06:16:45.216Z,13.97
2019-05-10T06:20:50.728Z,16.90
2019-05-10T06:24:59.354Z,15.20
2019-05-10T06:29:16.122Z,15.37
2019-05-10T06:33:18.301Z,15.20
2019-05-10T06:37:26.894Z,15.73
2019-05-10T06:41:35.494Z,14.77
2019-05-10T06:45:46.764Z,15.40
2019-05-10T06:49:55.014Z,16.53
2019-05-10T06:54:03.744Z,13.00
2019-05-10T06:58:12.410Z,12.50
2019-05-10T07:02:26.157Z,12.00
2019-05-10T07:06:31.243Z,12.80
2019-05-10T07:10:39.865Z,12.73
2019-05-10T07:14:48.562Z,12.30
2019-05-10T07:19:02.183Z,11.93
2019-05-10T07:23:11.067Z,9.97
2019-05-10T07:27:20.072Z,9.70
2019-05-10T07:31:29.020Z,9.80
2019-05-10T07:35:38.817Z,8.30
2019-05-10T07:39:47.580Z,6.33
2019-05-10T07:44:00.475Z,7.20
2019-05-10T07:48:08.295Z,7.53
2019-05-10T07:52:16.853Z,6.13
2019-05-10T07:56:45.552Z,6.40
2019-05-10T08:00:56.156Z,6.60
2019-05-10T08:05:10.985Z,5.60
2019-05-10T08:09:19.250Z,5.63
2019-05-10T08:13:28.659Z,4.73
2019-05-10T08:17:43.263Z,4.80
2019-05-10T08:21:48.783Z,5.50
2019-05-10T08:25:58.272Z,5.83
2019-05-10T08:30:22.743Z,5.33
2019-05-10T08:34:18.835Z,4.53
2019-05-10T08:38:27.511Z,4.87
2019-05-10T08:42:45.506Z,4.80
2019-05-10T08:46:46.816Z,4.43
2019-05-10T08:50:57.629Z,4.30
2019-05-10T08:55:07.323Z,4.30
2019-05-10T08:59:23.634Z,3.90
2019-05-10T09:03:26.215Z,4.43
2019-05-10T09:07:38.836Z,3.80
2019-05-10T09:11:45.870Z,4.10
2019-05-10T09:15:56.939Z,3.80
2019-05-10T09:20:14.029Z,4.80
2019-05-10T09:24:22.885Z,4.37
2019-05-10T09:28:32.245Z,4.87
2019-05-10T09:32:43.205Z,4.93
2019-05-10T09:36:52.998Z,5.23
2019-05-10T09:41:02.484Z,5.10
2019-05-10T09:45:13.292Z,5.10
2019-05-10T09:49:23.236Z,5.03
2019-05-10T09:53:32.024Z,5.00
2019-05-10T09:57:40.734Z,4.20
2019-05-10T10:01:49.345Z,4.03
2019-05-10T10:06:05.119Z,4.60
2019-05-10T10:10:12.848Z,4.60
2019-05-10T10:14:18.776Z,4.27
2019-05-10T10:18:28.393Z,4.90
2019-05-10T10:22:38.189Z,5.27
2019-05-10T10:26:48.168Z,5.17
2019-05-10T10:30:59.956Z,5.93
2019-05-10T10:35:13.367Z,6.47
2019-05-10T10:39:22.849Z,5.20
2019-05-10T10:43:31.245Z,5.87
2019-05-10T10:47:39.953Z,5.97
2019-05-10T10:51:48.603Z,6.13
2019-05-10T10:56:03.404Z,5.10
2019-05-10T11:00:09.375Z,4.77
2019-05-10T11:04:17.962Z,4.90
2019-05-10T11:08:26.588Z,4.50
2019-05-10T11:12:35.150Z,5.07
2019-05-10T11:16:46.700Z,4.70
2019-05-10T11:20:54.243Z,4.80
2019-05-10T11:25:09.094Z,5.57
2019-05-10T11:29:22.034Z,5.53
2019-05-10T11:33:29.357Z,5.20
2019-05-10T11:37:36.436Z,5.43
2019-05-10T11:41:44.418Z,5.47
2019-05-10T11:45:53.068Z,4.93
2019-05-10T11:50:06.352Z,5.10
2019-05-10T11:54:12.361Z,4.57
2019-05-10T11:58:23.739Z,5.80
2019-05-10T12:02:38.677Z,6.20
2019-05-10T12:06:50.122Z,7.50
2019-05-10T12:10:53.747Z,8.83
2019-05-10T12:15:04.458Z,8.87
2019-05-10T12:19:19.809Z,9.77
2019-05-10T12:23:30.152Z,8.40
2019-05-10T12:27:43.976Z,9.20
2019-05-10T12:31:47.501Z,8.43
2019-05-10T12:35:54.166Z,9.10
2019-05-10T12:40:09.937Z,8.50
2019-05-10T12:44:13.530Z,9.07
2019-05-10T12:48:23.596Z,8.73
2019-05-10T12:52:32.458Z,6.97
2019-05-10T12:56:44.044Z,7.47
2019-05-10T13:00:54.248Z,8.43
2019-05-10T13:05:01.699Z,7.00
2019-05-10T13:09:10.207Z,7.07
2019-05-10T13:13:23.721Z,6.63
2019-05-10T13:17:29.196Z,6.83
2019-05-10T13:21:37.869Z,6.33
2019-05-10T13:25:46.522Z,6.80
2019-05-10T13:29:55.135Z,7.50
2019-05-10T13:34:24.388Z,7.73
2019-05-10T13:38:36.810Z,6.87
2019-05-10T13:42:45.751Z,7.97
2019-05-10T13:46:54.129Z,5.57
2019-05-10T13:51:02.752Z,5.80
2019-05-10T13:55:11.436Z,5.97
2019-05-10T13:59:20.076Z,6.33
2019-05-10T14:03:43.763Z,6.90
2019-05-10T14:07:50.922Z,6.50
2019-05-10T14:11:54.549Z,6.70
2019-05-10T14:16:04.182Z,6.00
2019-05-10T14:20:19.458Z,7.20
2019-05-10T14:24:23.278Z,6.70
2019-05-10T14:28:31.985Z,6.17
2019-05-10T14:32:40.622Z,6.37
2019-05-10T14:36:49.250Z,6.07
2019-05-10T14:40:57.786Z,6.53
2019-05-10T14:45:07.672Z,5.60
2019-05-10T14:49:16.291Z,6.20
2019-05-10T14:53:25.737Z,6.27
2019-05-10T14:57:35.216Z,5.80
2019-05-10T15:01:45.424Z,5.80
2019-05-10T15:05:57.549Z,6.43
2019-05-10T15:10:05.578Z,6.13
2019-05-10T15:14:14.241Z,5.83
2019-05-10T15:18:22.940Z,5.80
2019-05-10T15:22:31.501Z,5.90
2019-05-10T15:26:44.038Z,5.40
2019-05-10T15:30:52.702Z,5.70
2019-05-10T15:35:06.978Z,6.30
2019-05-10T15:39:11.098Z,6.20
2019-05-10T15:43:19.703Z,5.47
2019-05-10T15:47:28.330Z,5.70
2019-05-10T15:51:37.002Z,5.37
2019-05-10T15:55:45.642Z,6.60
2019-05-10T15:59:56.713Z,7.80
2019-05-10T16:04:05.035Z,7.27
2019-05-10T16:08:13.871Z,7.77
2019-05-10T16:12:22.779Z,9.50
2019-05-10T16:16:37.283Z,8.90
2019-05-10T16:20:42.580Z,7.97
2019-05-10T16:24:51.193Z,8.80
2019-05-10T16:29:02.179Z,8.07
2019-05-10T16:33:15.755Z,8.60
2019-05-10T16:37:38.521Z,9.03
2019-05-10T16:41:47.560Z,8.53
2019-05-10T16:45:56.246Z,8.47
2019-05-10T16:50:06.628Z,10.20
2019-05-10T16:54:24.330Z,9.30
2019-05-10T16:58:25.554Z,7.97
2019-05-10T17:02:36.835Z,7.60
2019-05-10T17:06:44.361Z,7.50
2019-05-10T17:10:52.940Z,9.10
2019-05-10T17:15:02.968Z,7.63
2019-05-10T17:19:11.838Z,7.40
2019-05-10T17:23:20.516Z,7.33
2019-05-10T17:27:29.220Z,7.80
2019-05-10T17:31:39.542Z,7.30
2019-05-10T17:35:48.190Z,7.93
2019-05-10T17:39:56.814Z,6.47
2019-05-10T17:44:05.503Z,7.10
2019-05-10T17:48:14.172Z,7.27
2019-05-10T17:52:22.807Z,8.60
2019-05-10T17:56:32.931Z,8.10
2019-05-10T18:00:41.748Z,7.60
2019-05-10T18:04:50.386Z,7.30
2019-05-10T18:08:58.988Z,7.50
2019-05-10T18:13:07.966Z,6.80
2019-05-10T18:17:20.904Z,8.50
2019-05-10T18:21:26.843Z,7.70
2019-05-10T18:25:35.449Z,8.83
2019-05-10T18:29:44.092Z,7.20
2019-05-10T18:33:54.532Z,7.67
2019-05-10T18:38:03.042Z,7.60
2019-05-10T18:42:11.684Z,8.03
2019-05-10T18:46:20.399Z,8.00
2019-05-10T18:50:29.047Z,8.07
2019-05-10T18:54:38.627Z,8.60
2019-05-10T18:58:47.288Z,8.00
2019-05-10T19:02:57.192Z,8.03
2019-05-10T19:07:09.892Z,8.87
2019-05-10T19:11:16.354Z,9.13
2019-05-10T19:15:24.943Z,8.37
2019-05-10T19:19:35.678Z,8.33
2019-05-10T19:23:43.907Z,9.53
2019-05-10T19:27:52.588Z,11.87
2019-05-10T19:32:01.165Z,11.40
2019-05-10T19:36:13.149Z,12.00
2019-05-10T19:40:20.597Z,11.37
2019-05-10T19:44:29.225Z,12.90
2019-05-10T19:48:37.853Z,11.80
2019-05-10T19:52:46.485Z,10.40
2019-05-10T19:56:55.609Z,9.90
2019-05-10T20:01:04.394Z,9.47
2019-05-10T20:05:13.093Z,10.03
2019-05-10T20:09:21.788Z,11.33
2019-05-10T20:13:30.473Z,11.90
2019-05-10T20:17:39.239Z,13.33
2019-05-10T20:21:47.889Z,12.37
2019-05-10T20:25:59.269Z,11.80
2019-05-10T20:30:08.068Z,11.90
2019-05-10T20:34:16.692Z,11.70
2019-05-10T20:38:25.309Z,11.33
2019-05-10T20:42:34.270Z,10.93
2019-05-10T20:46:42.895Z,11.63
2019-05-10T20:50:51.558Z,11.30
2019-05-10T20:55:00.305Z,11.33
2019-05-10T20:59:09.010Z,13.00
2019-05-10T21:03:17.676Z,13.23
2019-05-10T21:07:26.254Z,14.47
2019-05-10T21:11:34.911Z,12.63
2019-05-10T21:15:43.489Z,13.50
2019-05-10T21:19:52.162Z,14.03
2019-05-10T21:24:00.797Z,15.60
2019-05-10T21:28:09.424Z,15.07
2019-05-10T21:32:18.016Z,13.50
2019-05-10T21:36:26.673Z,13.60
2019-05-10T21:40:54.716Z,13.17
2019-05-10T21:45:03.556Z,13.60
2019-05-10T21:49:12.170Z,13.30
2019-05-10T21:53:20.818Z,15.23
2019-05-10T21:57:29.531Z,14.73
2019-05-10T22:01:38.324Z,15.83
2019-05-10T22:05:47.001Z,13.73
2019-05-10T22:09:55.699Z,13.53
2019-05-10T22:14:04.508Z,13.33
2019-05-10T22:18:13.181Z,13.97
2019-05-10T22:22:21.850Z,13.67
2019-05-10T22:26:30.512Z,14.37
2019-05-10T22:30:39.239Z,15.47
2019-05-10T22:34:47.931Z,15.70
2019-05-10T22:39:06.451Z,14.30
2019-05-10T22:43:07.192Z,15.70
2019-05-10T22:47:15.847Z,18.40
2019-05-10T22:51:24.536Z,20.33
2019-05-10T22:55:33.208Z,17.80
2019-05-10T22:59:41.909Z,20.40
2019-05-10T23:03:50.552Z,18.83
2019-05-10T23:07:59.262Z,17.30
2019-05-10T23:12:07.895Z,17.97
2019-05-10T23:16:16.618Z,18.07
2019-05-10T23:20:25.271Z,16.90
2019-05-10T23:24:38.345Z,17.30
2019-05-10T23:28:47.178Z,19.47
2019-05-10T23:32:56.295Z,20.07
2019-05-10T23:37:04.961Z,18.60
2019-05-10T23:41:13.613Z,18.80
2019-05-10T23:45:22.355Z,20.80
2019-05-10T23:49:30.994Z,19.00
2019-05-10T23:53:39.682Z,18.57
2019-05-10T23:57:48.329Z,20.00
